Time;durP1;ratioP1;P1;durP2;ratioP2;P2;SDS_P1;SDS_P2;PMS_P1;PMS_P2;Temp;Humidity;BMP_temperature;BMP_pressure;BME280_temperature;BME280_humidity;BME280_pressure;Samples;Min_cycle;Max_cycle;Signal;HPM_P1;HPM_P2
2023/07/18 00:02:35;;;;;;;5.50;2.33;;;;;;;14.77;100.00;102015.78;5054327;28;20471;-76
2023/07/18 00:05:21;;;;;;;7.45;2.60;;;;;;;14.75;100.00;102013.19;5056021;28;20135;-77
2023/07/18 00:08:07;;;;;;;8.40;2.60;;;;;;;14.75;100.00;102005.19;5053262;28;20127;-76
2023/07/18 00:10:52;;;;;;;5.55;2.60;;;;;;;14.76;100.00;102009.59;5055243;28;20033;-76
2023/07/18 00:13:38;;;;;;;6.65;2.60;;;;;;;14.75;100.00;102018.53;5038643;28;20036;-76
2023/07/18 00:16:24;;;;;;;7.80;2.75;;;;;;;14.73;100.00;102008.81;5043536;28;20139;-76
2023/07/18 00:19:12;;;;;;;8.23;2.50;;;;;;;14.71;100.00;102006.22;5054763;28;20045;-76
2023/07/18 00:21:57;;;;;;;6.72;2.50;;;;;;;14.70;100.00;102015.16;5067267;28;20041;-77
2023/07/18 00:24:43;;;;;;;8.85;2.92;;;;;;;14.71;100.00;102016.03;5040358;28;20486;-76
2023/07/18 00:27:29;;;;;;;9.20;2.72;;;;;;;14.70;100.00;102020.47;5055629;28;20462;-77
2023/07/18 00:30:14;;;;;;;6.95;2.72;;;;;;;14.70;100.00;102015.16;5054175;28;20098;-76
2023/07/18 00:33:00;;;;;;;7.10;2.45;;;;;;;14.67;100.00;102012.63;5054233;28;20062;-77
2023/07/18 00:35:47;;;;;;;6.10;2.28;;;;;;;14.63;100.00;102008.38;5044012;28;20499;-76
2023/07/18 00:38:33;;;;;;;10.27;2.60;;;;;;;14.60;100.00;102011.19;5053826;28;20582;-77
2023/07/18 00:41:18;;;;;;;7.68;2.38;;;;;;;14.57;100.00;102008.63;5040742;28;20040;-76
2023/07/18 00:44:04;;;;;;;9.55;2.90;;;;;;;14.56;100.00;102009.56;5055070;28;20029;-77
2023/07/18 00:46:50;;;;;;;7.88;2.67;;;;;;;14.53;100.00;102013.22;5054007;28;20040;-77
2023/07/18 00:49:36;;;;;;;5.18;2.38;;;;;;;14.52;100.00;102007.06;5051996;28;20041;-76
2023/07/18 00:52:22;;;;;;;4.28;2.20;;;;;;;14.53;100.00;102006.13;5016613;28;20159;-76
2023/07/18 00:55:10;;;;;;;5.45;2.60;;;;;;;14.52;100.00;102004.38;5026530;28;20031;-77
2023/07/18 00:57:56;;;;;;;8.13;2.88;;;;;;;14.52;100.00;102000.84;5012091;28;20037;-77
2023/07/18 01:00:42;;;;;;;9.27;2.90;;;;;;;14.50;100.00;101992.06;5028766;28;20475;-77
2023/07/18 01:03:28;;;;;;;6.18;2.60;;;;;;;14.49;100.00;102007.16;5027922;28;20021;-77
2023/07/18 01:06:14;;;;;;;7.22;2.38;;;;;;;14.49;100.00;101998.34;5025105;28;20494;-77
2023/07/18 01:08:59;;;;;;;5.95;2.47;;;;;;;14.49;100.00;102007.16;5024684;28;20049;-78
2023/07/18 01:11:45;;;;;;;8.32;2.63;;;;;;;14.47;100.00;101993.06;5040308;28;20037;-77
2023/07/18 01:14:31;;;;;;;6.00;2.42;;;;;;;14.44;100.00;101997.66;5025248;28;20044;-77
2023/07/18 01:17:17;;;;;;;7.18;2.75;;;;;;;14.43;100.00;101999.44;5053118;28;20510;-77
2023/07/18 01:20:04;;;;;;;9.20;2.88;;;;;;;14.41;100.00;102006.66;5024198;28;20127;-77
2023/07/18 01:22:58;;;;;;;8.30;2.63;;;;;;;14.37;100.00;101994.38;5040105;28;20499;-77
2023/07/18 01:25:44;;;;;;;7.10;2.65;;;;;;;14.36;100.00;102001.53;5040253;28;20035;-77
2023/07/18 01:28:30;;;;;;;9.15;2.88;;;;;;;14.35;100.00;102004.25;5041261;28;20617;-77
2023/07/18 01:31:15;;;;;;;6.05;2.35;;;;;;;14.33;100.00;101998.13;5039963;28;20139;-77
2023/07/18 01:34:01;;;;;;;8.68;2.88;;;;;;;14.32;100.00;101993.72;5040574;28;20051;-76
2023/07/18 01:36:47;;;;;;;7.30;2.90;;;;;;;14.34;100.00;101998.03;5026096;28;20746;-77
2023/07/18 01:39:33;;;;;;;8.60;2.97;;;;;;;14.36;100.00;101993.53;5039463;28;20064;-77
2023/07/18 01:42:19;;;;;;;8.55;2.92;;;;;;;14.37;100.00;101991.72;5040595;28;20044;-77
2023/07/18 01:45:05;;;;;;;6.93;2.65;;;;;;;14.38;100.00;101993.44;5013531;28;20040;-77
2023/07/18 01:47:51;;;;;;;10.93;3.13;;;;;;;14.39;100.00;101990.72;5025956;28;20048;-77
2023/07/18 01:50:37;;;;;;;8.05;3.15;;;;;;;14.38;100.00;101996.09;5039865;28;20040;-77
2023/07/18 01:53:26;;;;;;;7.40;2.75;;;;;;;14.37;100.00;101989.94;5024783;28;21153;-77
2023/07/18 01:56:11;;;;;;;10.25;2.90;;;;;;;14.36;100.00;101990.00;5026317;28;20148;-76
2023/07/18 01:58:57;;;;;;;5.50;2.53;;;;;;;14.37;100.00;101992.59;5023631;28;20044;-77
2023/07/18 02:01:43;;;;;;;8.13;2.85;;;;;;;14.38;100.00;101978.34;5038714;28;20072;-77
2023/07/18 02:04:28;;;;;;;7.45;2.95;;;;;;;14.40;100.00;101986.28;5024860;28;20107;-76
2023/07/18 02:07:15;;;;;;;7.05;3.20;;;;;;;14.40;100.00;101978.28;5039396;28;20550;-77
2023/07/18 02:10:01;;;;;;;6.90;2.78;;;;;;;14.43;100.00;101983.47;5025390;28;20514;-77
2023/07/18 02:12:48;;;;;;;7.07;3.47;;;;;;;14.42;100.00;101978.22;5040911;28;20444;-76
2023/07/18 02:15:34;;;;;;;7.45;3.10;;;;;;;14.45;100.00;101980.72;5039313;28;20051;-77
2023/07/18 02:18:19;;;;;;;6.88;2.97;;;;;;;14.45;100.00;101976.28;5051615;28;20041;-77
2023/07/18 02:21:05;;;;;;;9.52;3.03;;;;;;;14.45;100.00;101970.97;5039219;28;20068;-77
2023/07/18 02:23:51;;;;;;;7.47;3.05;;;;;;;14.45;100.00;101973.63;5038631;28;20515;-77
2023/07/18 02:26:38;;;;;;;10.05;3.20;;;;;;;14.44;100.00;101969.19;5023619;28;20459;-76
2023/07/18 02:29:24;;;;;;;10.48;3.28;;;;;;;14.42;100.00;101967.56;5039585;28;20143;-76
2023/07/18 02:32:10;;;;;;;7.60;3.50;;;;;;;14.39;100.00;101958.75;5024354;28;20120;-77
2023/07/18 02:34:56;;;;;;;7.43;3.40;;;;;;;14.38;100.00;101962.34;5023730;28;20040;-76
2023/07/18 02:37:42;;;;;;;9.63;3.28;;;;;;;14.39;100.00;101957.91;5038643;28;20110;-77
2023/07/18 02:40:28;;;;;;;11.60;3.83;;;;;;;14.38;100.00;101967.69;5025200;28;20505;-76
2023/07/18 02:43:13;;;;;;;7.57;3.63;;;;;;;14.34;100.00;101962.56;5038813;28;20032;-76
2023/07/18 02:45:59;;;;;;;8.57;3.15;;;;;;;14.31;100.00;101960.00;5028152;28;20044;-77
2023/07/18 02:48:45;;;;;;;8.90;3.08;;;;;;;14.30;100.00;101961.84;5039720;28;20036;-77
2023/07/18 02:51:31;;;;;;;9.55;3.60;;;;;;;14.31;100.00;101963.56;5038296;28;20068;-77
2023/07/18 02:54:17;;;;;;;6.75;3.25;;;;;;;14.30;100.00;101966.28;5039138;28;20044;-77
2023/07/18 02:57:04;;;;;;;5.70;3.28;;;;;;;14.30;100.00;101968.94;5027214;28;20040;-76
2023/07/18 02:59:50;;;;;;;7.47;2.85;;;;;;;14.29;100.00;101970.75;5037612;28;20041;-76
2023/07/18 03:02:37;;;;;;;12.50;3.80;;;;;;;14.28;100.00;101966.38;5039410;28;20070;-77
2023/07/18 03:05:22;;;;;;;11.18;3.38;;;;;;;14.25;100.00;101964.69;5024450;28;20057;-77
2023/07/18 03:08:08;;;;;;;7.43;3.08;;;;;;;14.22;100.00;101966.63;5038265;28;20029;-77
2023/07/18 03:10:54;;;;;;;11.32;4.15;;;;;;;14.20;100.00;101973.78;5039223;28;20617;-77
2023/07/18 03:13:40;;;;;;;8.50;3.33;;;;;;;14.19;100.00;101964.97;5023471;28;20098;-76
2023/07/18 03:16:25;;;;;;;8.02;3.50;;;;;;;14.17;100.00;101964.13;5037520;28;20480;-77
2023/07/18 03:19:11;;;;;;;8.32;3.40;;;;;;;14.17;100.00;101966.81;5037915;28;20041;-77
2023/07/18 03:21:57;;;;;;;8.25;3.67;;;;;;;14.17;100.00;101966.81;5024697;28;20138;-77
2023/07/18 03:24:43;;;;;;;9.93;3.22;;;;;;;14.17;100.00;101968.63;5014166;28;20036;-76
2023/07/18 03:27:28;;;;;;;7.90;3.20;;;;;;;14.19;100.00;101972.06;5022100;28;20128;-77
2023/07/18 03:30:14;;;;;;;11.25;3.83;;;;;;;14.20;100.00;101974.69;5037669;28;20671;-77
2023/07/18 03:33:00;;;;;;;11.00;3.08;;;;;;;14.22;100.00;101983.47;5027819;28;20029;-77
2023/07/18 03:35:46;;;;;;;11.52;3.50;;;;;;;14.26;100.00;101986.84;5050380;28;20033;-76
2023/07/18 03:38:32;;;;;;;9.93;3.90;;;;;;;14.25;100.00;101978.00;5037680;28;20063;-76
2023/07/18 03:41:17;;;;;;;10.00;3.65;;;;;;;14.24;100.00;101978.94;5037892;28;21942;-77
2023/07/18 03:44:03;;;;;;;8.73;3.45;;;;;;;14.23;100.00;101977.19;5037656;28;20498;-77
2023/07/18 03:46:49;;;;;;;9.38;3.42;;;;;;;14.24;100.00;101975.41;5050503;28;20028;-76
2023/07/18 03:49:35;;;;;;;8.60;3.38;;;;;;;14.28;100.00;101979.69;5022546;28;20059;-76
2023/07/18 03:52:21;;;;;;;11.68;3.20;;;;;;;14.31;100.00;101978.66;5027521;28;20032;-77
2023/07/18 03:55:07;;;;;;;10.55;3.25;;;;;;;14.32;100.00;101972.44;5038333;28;20132;-76
2023/07/18 03:57:52;;;;;;;12.82;3.20;;;;;;;14.35;100.00;101977.59;5022245;28;20397;-76
2023/07/18 04:00:38;;;;;;;7.63;3.85;;;;;;;14.36;100.00;101979.34;5021935;28;20045;-76
2023/07/18 04:03:24;;;;;;;7.97;3.28;;;;;;;14.39;100.00;101974.72;5038307;28;20053;-76
2023/07/18 04:06:10;;;;;;;9.93;3.10;;;;;;;14.44;100.00;101971.88;5023906;28;20044;-76
2023/07/18 04:08:56;;;;;;;9.30;3.17;;;;;;;14.46;100.00;101964.69;5037143;28;20048;-76
2023/07/18 04:11:45;;;;;;;8.15;3.40;;;;;;;14.49;100.00;101971.69;5037845;28;20032;-76
2023/07/18 04:14:31;;;;;;;12.75;3.83;;;;;;;14.49;100.00;101975.19;5036308;28;20130;-76
2023/07/18 04:17:17;;;;;;;7.88;3.60;;;;;;;14.52;100.00;101969.75;5036997;28;20037;-76
2023/07/18 04:20:04;;;;;;;7.00;3.78;;;;;;;14.54;100.00;101961.66;5038096;28;20049;-76
2023/07/18 04:22:50;;;;;;;8.27;2.90;;;;;;;14.52;100.00;101958.22;5050345;28;20056;-76
2023/07/18 04:26:02;;;;;;;8.02;3.38;;;;;;;14.52;100.00;101961.75;5022720;28;20125;-76
2023/07/18 04:28:48;;;;;;;9.65;3.00;;;;;;;14.55;100.00;101965.22;5026800;28;20372;-77
2023/07/18 04:31:34;;;;;;;9.45;3.25;;;;;;;14.58;100.00;101963.28;5027858;28;20051;-76
2023/07/18 04:34:20;;;;;;;12.52;3.17;;;;;;;14.62;100.00;101954.22;5040703;28;20106;-76
2023/07/18 04:37:06;;;;;;;11.88;3.38;;;;;;;14.66;100.00;101957.59;5053701;28;20132;-78
2023/07/18 04:39:52;;;;;;;10.10;3.35;;;;;;;14.70;100.00;101950.34;5041535;28;20720;-76
2023/07/18 04:42:37;;;;;;;6.93;3.10;;;;;;;14.75;100.00;101943.88;5031399;28;20058;-76
2023/07/18 04:45:23;;;;;;;9.25;3.35;;;;;;;14.78;100.00;101946.41;5028034;28;20774;-76
2023/07/18 04:48:10;;;;;;;11.48;3.45;;;;;;;14.83;100.00;101943.53;5041939;28;20036;-76
2023/07/18 04:50:58;;;;;;;11.63;3.67;;;;;;;14.88;100.00;101938.84;5040359;28;20056;-76
2023/07/18 04:53:43;;;;;;;10.60;3.40;;;;;;;14.96;100.00;101934.94;5041731;28;20032;-76
2023/07/18 04:56:29;;;;;;;9.27;3.67;;;;;;;14.98;100.00;101930.44;5040268;28;20129;-76
2023/07/18 04:59:15;;;;;;;10.95;3.80;;;;;;;15.04;100.00;101932.81;5026952;28;20036;-76
2023/07/18 05:02:01;;;;;;;14.10;3.95;;;;;;;15.11;100.00;101933.38;5040800;28;20075;-76
2023/07/18 05:04:48;;;;;;;8.40;3.53;;;;;;;15.18;100.00;101930.34;5039766;28;20045;-76
2023/07/18 05:07:33;;;;;;;14.00;3.70;;;;;;;15.26;100.00;101935.31;5025744;28;20045;-76
2023/07/18 05:10:21;;;;;;;10.05;3.65;;;;;;;15.32;100.00;101932.34;5040479;28;20068;-76
2023/07/18 05:13:07;;;;;;;12.93;4.43;;;;;;;15.41;100.00;101930.19;5039647;28;20080;-76
2023/07/18 05:15:52;;;;;;;11.55;3.50;;;;;;;15.47;100.00;101930.75;5040198;28;20076;-76
2023/07/18 05:18:38;;;;;;;11.70;3.90;;;;;;;15.53;100.00;101934.91;5025173;28;20036;-76
2023/07/18 05:21:24;;;;;;;9.55;3.53;;;;;;;15.58;100.00;101946.22;5025027;28;20040;-76
2023/07/18 05:24:10;;;;;;;10.50;3.65;;;;;;;15.67;100.00;101944.91;5040187;28;20048;-76
2023/07/18 05:26:55;;;;;;;15.90;3.58;;;;;;;15.74;100.00;101937.44;5040391;28;20577;-76
2023/07/18 05:29:41;;;;;;;13.32;4.00;;;;;;;15.86;100.00;101947.50;5039909;28;20506;-76
2023/07/18 05:32:27;;;;;;;11.25;3.95;;;;;;;16.00;100.00;101945.97;5026541;28;20033;-76
2023/07/18 05:35:16;;;;;;;9.73;3.85;;;;;;;16.14;100.00;101951.47;5040702;28;20901;-75
2023/07/18 05:38:02;;;;;;;11.48;4.28;;;;;;;16.25;100.00;101944.72;5025381;28;20028;-77
2023/07/18 05:40:48;;;;;;;14.25;4.15;;;;;;;16.36;100.00;101952.19;5038286;28;20033;-76
2023/07/18 05:43:33;;;;;;;14.73;4.72;;;;;;;16.44;100.00;101952.63;5024994;28;20124;-77
2023/07/18 05:46:19;;;;;;;10.50;4.90;;;;;;;16.51;100.00;101947.84;5029709;28;20033;-76
2023/07/18 05:49:05;;;;;;;10.63;4.13;;;;;;;16.58;100.00;101949.25;5039857;28;20183;-76
2023/07/18 05:51:51;;;;;;;16.88;4.43;;;;;;;16.62;100.00;101956.13;5040456;28;21013;-76
2023/07/18 05:54:37;;;;;;;11.43;4.70;;;;;;;16.68;100.00;101960.31;5040049;28;20650;-76
2023/07/18 05:57:23;;;;;;;12.38;5.03;;;;;;;16.71;100.00;101954.78;5039150;28;20040;-76
2023/07/18 06:00:10;;;;;;;17.35;5.05;;;;;;;16.82;100.00;101956.88;5038700;28;20040;-77
2023/07/18 06:02:56;;;;;;;13.32;5.80;;;;;;;16.96;100.00;101953.44;5039853;28;20033;-76
2023/07/18 06:05:42;;;;;;;13.75;5.13;;;;;;;17.17;100.00;101955.91;5040233;28;20045;-76
2023/07/18 06:08:27;;;;;;;18.67;5.53;;;;;;;17.36;100.00;101953.06;5038771;28;20044;-76
2023/07/18 06:11:13;;;;;;;11.02;5.45;;;;;;;17.58;100.00;101957.16;5025279;28;20236;-76
2023/07/18 06:13:59;;;;;;;12.57;6.03;;;;;;;17.73;100.00;101952.75;5038948;28;20673;-76
2023/07/18 06:16:46;;;;;;;19.25;5.97;;;;;;;17.87;100.00;101960.00;5023947;28;20051;-76
2023/07/18 06:19:31;;;;;;;13.85;5.88;;;;;;;18.02;100.00;101960.88;5039954;28;20061;-76
2023/07/18 06:22:18;;;;;;;14.05;5.18;;;;;;;18.24;100.00;101959.63;5053037;28;20041;-76
2023/07/18 06:25:04;;;;;;;15.57;5.28;;;;;;;18.51;100.00;101967.81;5024678;28;20488;-76
2023/07/18 06:27:49;;;;;;;10.95;5.20;;;;;;;18.71;100.00;101965.69;5023967;28;20040;-76
2023/07/18 06:30:37;;;;;;;8.45;3.30;;;;;;;18.79;100.00;101967.91;5023555;28;20411;-76
2023/07/18 06:33:23;;;;;;;10.20;3.80;;;;;;;18.71;100.00;101960.34;5023818;28;20040;-77
2023/07/18 06:36:09;;;;;;;10.73;3.30;;;;;;;18.61;100.00;101959.22;4998465;28;20558;-76
2023/07/18 06:38:55;;;;;;;14.50;3.35;;;;;;;18.50;100.00;101968.75;5038820;28;20428;-76
2023/07/18 06:41:41;;;;;;;9.73;3.72;;;;;;;18.40;100.00;101975.63;5039111;28;20041;-76
2023/07/18 06:44:27;;;;;;;12.40;3.97;;;;;;;18.31;100.00;101974.41;5023070;28;20048;-76
2023/07/18 06:47:13;;;;;;;8.07;3.85;;;;;;;18.20;100.00;101969.69;5038701;28;20476;-76
2023/07/18 06:49:58;;;;;;;9.63;3.60;;;;;;;18.13;100.00;101965.63;5037785;28;20056;-76
2023/07/18 06:52:44;;;;;;;11.25;4.03;;;;;;;18.24;100.00;101962.31;5039284;28;20064;-76
2023/07/18 06:55:30;;;;;;;7.72;4.13;;;;;;;18.49;100.00;101967.03;5039220;28;20047;-76
2023/07/18 06:58:16;;;;;;;13.15;4.32;;;;;;;18.71;100.00;101968.38;5024413;28;20123;-76
2023/07/18 07:01:02;;;;;;;10.05;3.92;;;;;;;18.79;100.00;101963.41;5022183;28;20052;-76
2023/07/18 07:03:49;;;;;;;9.80;4.13;;;;;;;18.93;100.00;101964.34;5038737;28;20045;-76
2023/07/18 07:06:41;;;;;;;6.32;3.20;;;;;;;19.04;100.00;101966.38;5022649;28;20049;-77
2023/07/18 07:09:26;;;;;;;11.68;4.35;;;;;;;19.13;100.00;101966.66;5036550;28;20036;-77
2023/07/18 07:12:14;;;;;;;10.20;3.30;;;;;;;19.37;100.00;101967.84;5037816;28;20071;-76
2023/07/18 07:15:01;;;;;;;11.13;3.20;;;;;;;19.46;100.00;101966.38;5038273;28;20142;-76
2023/07/18 07:17:46;;;;;;;12.20;3.65;;;;;;;19.43;100.00;101964.75;5050813;28;20047;-76
2023/07/18 07:20:33;;;;;;;12.15;3.60;;;;;;;19.48;100.00;101967.13;5037386;28;20279;-77
2023/07/18 07:23:19;;;;;;;9.35;3.40;;;;;;;19.62;100.00;101974.31;5022350;28;20540;-75
2023/07/18 07:26:05;;;;;;;10.77;3.35;;;;;;;19.68;100.00;101977.44;5023435;28;20033;-76
2023/07/18 07:28:50;;;;;;;6.18;2.90;;;;;;;19.72;100.00;101967.34;5023308;28;20033;-76
2023/07/18 07:31:37;;;;;;;7.43;2.85;;;;;;;19.95;100.00;101967.66;5022484;28;20485;-76
2023/07/18 07:34:22;;;;;;;7.60;3.00;;;;;;;20.22;100.00;101962.22;5051484;28;20457;-76
2023/07/18 07:37:08;;;;;;;4.75;2.40;;;;;;;20.43;100.00;101961.69;5037410;28;20143;-77
2023/07/18 07:39:54;;;;;;;7.35;2.80;;;;;;;20.69;100.00;101964.38;5012785;28;20080;-76
2023/07/18 07:42:42;;;;;;;7.70;2.70;;;;;;;20.99;100.00;101963.19;5022851;28;20778;-75
2023/07/18 07:45:27;;;;;;;6.07;2.38;;;;;;;21.10;100.00;101969.59;5002854;28;20064;-76
2023/07/18 07:48:13;;;;;;;7.43;2.00;;;;;;;21.13;100.00;101964.84;5038050;28;20029;-76
2023/07/18 07:51:03;;;;;;;6.07;2.00;;;;;;;21.29;100.00;101959.22;5036908;28;20523;-75
2023/07/18 07:53:49;;;;;;;4.18;2.03;;;;;;;21.52;100.00;101958.47;5012738;28;20037;-76
2023/07/18 07:56:35;;;;;;;6.97;1.90;;;;;;;21.52;100.00;101956.63;5039159;28;20045;-76
2023/07/18 07:59:20;;;;;;;6.63;2.25;;;;;;;21.48;100.00;101952.47;5038345;28;20037;-76
2023/07/18 08:02:06;;;;;;;4.18;2.00;;;;;;;21.53;100.00;101955.66;5041370;28;20507;-76
2023/07/18 08:04:52;;;;;;;8.65;1.88;;;;;;;21.70;100.00;101946.31;5026021;28;20050;-76
2023/07/18 08:07:39;;;;;;;2.90;1.80;;;;;;;22.03;100.00;101946.56;5042313;28;20029;-75
2023/07/18 08:10:25;;;;;;;9.90;2.17;;;;;;;22.24;100.00;101948.56;5001883;28;20055;-75
2023/07/18 08:13:11;;;;;;;5.10;1.67;;;;;;;22.33;100.00;101950.53;5025398;28;20071;-75
2023/07/18 08:15:57;;;;;;;4.63;1.55;;;;;;;22.35;100.00;101958.53;5030182;28;20040;-76
2023/07/18 08:18:42;;;;;;;4.78;1.60;;;;;;;22.46;100.00;101952.28;5040644;28;20518;-76
2023/07/18 08:21:28;;;;;;;5.28;1.40;;;;;;;22.60;100.00;101953.94;5041853;28;20045;-75
2023/07/18 08:24:14;;;;;;;2.63;1.20;;;;;;;22.58;100.00;101950.47;5027413;28;20029;-76
2023/07/18 08:27:00;;;;;;;3.70;1.38;;;;;;;22.66;100.00;101953.41;5026886;28;20044;-75
2023/07/18 08:29:46;;;;;;;4.70;1.67;;;;;;;22.62;100.00;101950.09;5041452;28;20076;-77
2023/07/18 08:32:31;;;;;;;7.03;2.00;;;;;;;22.39;100.00;101947.38;5025905;28;20036;-76
2023/07/18 08:35:17;;;;;;;6.15;1.75;;;;;;;21.94;100.00;101941.88;5026436;28;20028;-77
2023/07/18 08:38:04;;;;;;;7.93;2.20;;;;;;;21.79;100.00;101944.78;5040068;28;20380;-77
2023/07/18 08:40:50;;;;;;;4.15;1.77;;;;;;;21.65;100.00;101947.63;5019528;28;20041;-77
2023/07/18 08:43:36;;;;;;;5.93;1.67;;;;;;;21.62;100.00;101950.56;5041073;28;20071;-77
2023/07/18 08:46:22;;;;;;;4.95;2.10;;;;;;;21.52;100.00;101943.16;5013488;28;20060;-77
2023/07/18 08:49:14;;;;;;;6.50;2.47;;;;;;;21.47;100.00;101942.66;5029552;28;20052;-76
2023/07/18 08:52:01;;;;;;;4.70;1.75;;;;;;;21.39;100.00;101931.59;5040898;28;20064;-76
2023/07/18 08:54:47;;;;;;;4.03;1.65;;;;;;;21.44;100.00;101929.41;5041452;28;20402;-76
2023/07/18 08:57:33;;;;;;;4.47;1.90;;;;;;;21.38;100.00;101932.56;5040965;28;20044;-76
2023/07/18 09:00:20;;;;;;;3.50;1.35;;;;;;;21.39;100.00;101926.19;5025112;28;20492;-76
2023/07/18 09:03:06;;;;;;;3.05;1.52;;;;;;;21.43;100.00;101922.31;5041544;28;20044;-76
2023/07/18 09:05:52;;;;;;;6.65;1.58;;;;;;;21.61;100.00;101913.81;5041748;28;20158;-76
2023/07/18 09:08:44;;;;;;;5.15;1.70;;;;;;;22.01;100.00;101916.16;5040259;28;20928;-77
2023/07/18 09:11:30;;;;;;;4.65;1.52;;;;;;;22.38;100.00;101918.69;5015609;28;20033;-76
2023/07/18 09:14:42;;;;;;;3.70;1.45;;;;;;;22.59;100.00;101909.88;5030189;28;20118;-76
2023/07/18 09:17:27;;;;;;;4.57;1.30;;;;;;;22.60;100.00;101917.00;5040642;28;20381;-76
2023/07/18 09:20:17;;;;;;;4.90;1.70;;;;;;;22.42;100.00;101918.41;5024295;28;20098;-77
2023/07/18 09:23:03;;;;;;;3.75;1.75;;;;;;;22.31;100.00;101919.28;5026037;28;20037;-76
2023/07/18 09:25:49;;;;;;;4.22;2.00;;;;;;;22.47;100.00;101911.69;5041225;28;20033;-76
2023/07/18 09:28:35;;;;;;;6.82;2.30;;;;;;;22.68;100.00;101924.47;5024907;28;20204;-76
2023/07/18 09:31:23;;;;;;;6.05;2.05;;;;;;;22.61;100.00;101918.72;5039388;28;20032;-76
2023/07/18 09:34:12;;;;;;;2.42;1.65;;;;;;;22.39;100.00;101914.16;5039892;28;20098;-76
2023/07/18 09:37:00;;;;;;;5.28;2.05;;;;;;;22.24;100.00;101916.22;5040085;28;20127;-76
2023/07/18 09:39:47;;;;;;;3.55;2.20;;;;;;;22.24;100.00;101914.34;5004677;28;20083;-76
2023/07/18 09:42:33;;;;;;;5.00;2.00;;;;;;;22.06;100.00;101913.97;5041134;28;20089;-76
2023/07/18 09:45:18;;;;;;;5.13;2.08;;;;;;;21.97;100.00;101910.16;5039642;28;20609;-75
2023/07/18 09:48:05;;;;;;;4.80;2.30;;;;;;;21.86;100.00;101920.03;5024773;28;20033;-76
2023/07/18 09:50:53;;;;;;;7.45;3.15;;;;;;;21.73;100.00;101915.59;5052061;28;20045;-76
2023/07/18 09:53:40;;;;;;;5.57;2.50;;;;;;;21.60;100.00;101910.25;5024162;28;20041;-76
2023/07/18 09:56:26;;;;;;;8.15;2.35;;;;;;;21.46;100.00;101911.28;5040071;28;20041;-76
2023/07/18 09:59:13;;;;;;;7.68;2.47;;;;;;;21.33;100.00;101910.50;5024725;28;20040;-76
2023/07/18 10:02:04;;;;;;;4.30;2.20;;;;;;;21.21;99.97;101910.44;5052999;28;20036;-76
2023/07/18 10:04:50;;;;;;;4.95;2.05;;;;;;;21.11;100.00;101904.00;5028054;28;20033;-76
2023/07/18 10:07:37;;;;;;;3.40;2.03;;;;;;;21.13;100.00;101905.63;5025682;28;20032;-76
2023/07/18 10:10:23;;;;;;;4.50;1.95;;;;;;;21.42;100.00;101890.97;5037216;28;20043;-77
2023/07/18 10:13:09;;;;;;;5.50;1.90;;;;;;;21.76;99.63;101896.50;5037786;28;20049;-76
2023/07/18 10:16:13;;;;;;;2.78;1.83;;;;;;;21.81;96.92;101899.72;5014112;28;20037;-76
2023/07/18 10:18:59;;;;;;;4.60;2.08;;;;;;;21.73;98.39;101885.94;5038913;28;20043;-76
2023/07/18 10:21:49;;;;;;;5.43;1.90;;;;;;;21.65;98.26;101894.63;5024897;28;20036;-77
2023/07/18 10:24:34;;;;;;;4.15;2.08;;;;;;;21.48;97.00;101897.72;5012848;28;20033;-76
2023/07/18 10:27:24;;;;;;;4.43;1.92;;;;;;;21.30;96.62;101895.44;5039138;28;20060;-77
2023/07/18 10:30:12;;;;;;;5.45;2.20;;;;;;;21.15;97.07;101887.53;5024504;28;20036;-77
2023/07/18 10:32:58;;;;;;;3.92;2.20;;;;;;;21.10;97.93;101884.34;5051701;28;20037;-76
2023/07/18 10:35:44;;;;;;;4.10;1.83;;;;;;;21.06;98.28;101881.94;5038953;28;20106;-76
2023/07/18 10:38:35;;;;;;;5.53;2.13;;;;;;;21.03;97.95;101880.38;5038983;28;20088;-78
2023/07/18 10:41:21;;;;;;;2.17;1.80;;;;;;;20.97;97.78;101878.13;5039742;28;20041;-76
2023/07/18 10:44:10;;;;;;;5.55;1.98;;;;;;;20.94;97.51;101876.53;5037876;28;20056;-76
2023/07/18 10:46:56;;;;;;;6.03;1.95;;;;;;;20.91;97.20;101875.91;5040107;28;20048;-76
2023/07/18 10:49:42;;;;;;;5.65;2.00;;;;;;;20.83;97.48;101876.41;5037687;28;20047;-76
2023/07/18 10:52:28;;;;;;;6.05;2.33;;;;;;;20.77;97.66;101888.50;5027573;28;20047;-76
2023/07/18 10:55:16;;;;;;;3.75;2.03;;;;;;;20.70;97.83;101874.59;5038203;28;20037;-76
2023/07/18 10:58:02;;;;;;;4.10;2.00;;;;;;;20.69;98.39;101874.75;5038448;28;20492;-76
2023/07/18 11:00:49;;;;;;;4.93;1.95;;;;;;;20.63;98.64;101871.53;5023678;28;20041;-76
2023/07/18 11:03:35;;;;;;;4.80;1.95;;;;;;;20.61;99.04;101877.97;5010025;28;20037;-76
2023/07/18 11:06:21;;;;;;;4.88;1.80;;;;;;;20.60;98.60;101877.09;5038222;28;20045;-77
2023/07/18 11:09:13;;;;;;;4.97;1.70;;;;;;;20.53;98.08;101875.00;5038647;28;20071;-77
2023/07/18 11:12:00;;;;;;;3.60;1.50;;;;;;;20.46;97.48;101867.34;5050591;28;20032;-77
2023/07/18 11:14:46;;;;;;;3.40;1.70;;;;;;;20.48;97.91;101868.09;5037851;28;20067;-77
2023/07/18 11:17:32;;;;;;;4.65;1.45;;;;;;;20.52;97.83;101870.59;5038271;28;20111;-76
2023/07/18 11:20:19;;;;;;;8.65;1.70;;;;;;;20.52;97.81;101870.59;5050729;28;20077;-76
2023/07/18 11:23:05;;;;;;;5.30;2.35;;;;;;;20.58;98.11;101862.91;5021795;28;20120;-76
2023/07/18 11:25:51;;;;;;;4.93;1.70;;;;;;;20.57;97.80;101857.63;5050944;28;20682;-76
2023/07/18 11:28:37;;;;;;;7.25;2.40;;;;;;;20.58;98.28;101854.84;5037329;28;20037;-76
2023/07/18 11:31:27;;;;;;;4.25;1.80;;;;;;;20.57;98.21;101847.75;5037023;28;20037;-76
2023/07/18 11:34:21;;;;;;;4.05;1.80;;;;;;;20.59;98.91;101842.28;5037178;28;20036;-76
2023/07/18 11:37:07;;;;;;;5.60;1.80;;;;;;;20.63;99.70;101839.25;5037320;28;20155;-76
2023/07/18 11:39:57;;;;;;;5.85;1.95;;;;;;;20.68;99.67;101833.50;5037059;28;20052;-76
2023/07/18 11:42:51;;;;;;;5.15;2.10;;;;;;;20.73;99.38;101831.34;5024348;28;20037;-76
2023/07/18 11:45:36;;;;;;;6.28;1.92;;;;;;;20.76;99.90;101828.44;5013377;28;20040;-76
2023/07/18 11:48:22;;;;;;;2.72;1.52;;;;;;;20.88;100.00;101831.22;5023091;28;20088;-76
2023/07/18 11:51:08;;;;;;;5.55;1.90;;;;;;;21.09;100.00;101825.22;5037296;28;20123;-76
2023/07/18 11:53:54;;;;;;;6.60;1.77;;;;;;;21.33;99.82;101821.63;5027851;28;20053;-76
2023/07/18 11:56:40;;;;;;;5.28;1.63;;;;;;;21.61;99.79;101819.53;5037100;28;21056;-77
2023/07/18 11:59:26;;;;;;;5.63;1.70;;;;;;;21.93;98.07;101825.13;5037781;28;20053;-76
2023/07/18 12:02:12;;;;;;;5.10;1.80;;;;;;;22.21;97.84;101813.97;5037002;28;20160;-77
2023/07/18 12:04:58;;;;;;;4.25;1.90;;;;;;;22.51;96.22;101820.63;5037218;28;20037;-77
2023/07/18 12:07:44;;;;;;;3.40;1.20;;;;;;;22.70;92.50;101813.72;5021991;28;20384;-76
2023/07/18 12:10:32;;;;;;;2.25;1.20;;;;;;;22.95;91.47;101814.38;5021334;28;20155;-76
2023/07/18 12:13:18;;;;;;;3.22;1.50;;;;;;;23.25;89.48;101807.41;5037799;28;20040;-77
2023/07/18 12:16:05;;;;;;;2.80;1.25;;;;;;;23.42;89.49;101801.41;5038321;28;20099;-76
2023/07/18 12:18:50;;;;;;;1.85;1.02;;;;;;;23.53;88.85;101803.19;5023719;28;20403;-76
2023/07/18 12:21:36;;;;;;;2.15;1.27;;;;;;;23.65;87.28;101798.59;5038431;28;20107;-76
2023/07/18 12:24:22;;;;;;;2.45;1.00;;;;;;;23.84;85.45;101813.19;5037703;28;20114;-77
2023/07/18 12:27:08;;;;;;;2.10;0.80;;;;;;;24.03;84.34;101806.19;5027202;28;20040;-76
2023/07/18 12:29:53;;;;;;;2.05;0.98;;;;;;;24.23;85.11;101810.72;5037128;28;20072;-77
2023/07/18 12:32:39;;;;;;;2.13;1.05;;;;;;;24.41;83.96;101800.09;5037891;28;20037;-76
2023/07/18 12:35:26;;;;;;;1.38;0.80;;;;;;;24.63;82.96;101802.72;5036817;28;20065;-77
2023/07/18 12:38:11;;;;;;;2.25;0.80;;;;;;;24.76;82.87;101803.31;5037359;28;20413;-74
2023/07/18 12:40:57;;;;;;;1.95;0.98;;;;;;;24.89;81.20;101797.63;5036941;28;20118;-77
2023/07/18 12:43:43;;;;;;;2.70;1.23;;;;;;;24.86;80.28;101794.34;5024009;28;22212;-77
2023/07/18 12:46:29;;;;;;;2.10;1.02;;;;;;;24.74;78.60;101794.47;5038487;28;20521;-78